Lake Village, Indiana
Current Conditions -  °F | °C
As of 3:35 AM on Friday 24 Oct 2014 (Local Time) from KRZL Reporting Station
Light Rain Light Rain  
Wind Chill: 50°   Ceiling: 3000
Heat Index: 50°   Visibility: 7mi
Dew Point: 46°   Wind: 0mph
Humidity: 87%   Direction: NA
Pressure: 30.07"   Gusts: NA
Location:  41.14°N, 87.45°W
Report Text: KRZL 240835Z AUTO 00000KT 7SM -RA BKN030 OVC039 10/08 A3007 RMK AO2
Loading
Personal Weather Stations






























Interactive Weather Map
Tropical Storm Tracking
New forecast layout! Learn more

10-Day Weather Forecast

Advertisements
Track Severe Weather on mobile